sensor_id;sensor_type;location;lat;lon;timestamp;pressure;altitude;pressure_sealevel;temperature;humidity
19259;BME280;9763;48.780;9.212;2023-09-19T00:02:21;97957.56;;;21.92;62.21
19259;BME280;9763;48.780;9.212;2023-09-19T00:05:47;97956.38;;;21.95;62.04
19259;BME280;9763;48.780;9.212;2023-09-19T00:09:12;97949.78;;;21.91;62.54
19259;BME280;9763;48.780;9.212;2023-09-19T00:12:37;97968.56;;;21.89;61.96
19259;BME280;9763;48.780;9.212;2023-09-19T00:16:09;97984.69;;;21.88;62.08
19259;BME280;9763;48.780;9.212;2023-09-19T00:19:35;97988.34;;;21.87;62.71
19259;BME280;9763;48.780;9.212;2023-09-19T00:23:01;97986.69;;;21.86;62.65
19259;BME280;9763;48.780;9.212;2023-09-19T00:26:34;97988.25;;;21.80;62.47
19259;BME280;9763;48.780;9.212;2023-09-19T00:29:58;98003.84;;;21.83;62.43
19259;BME280;9763;48.780;9.212;2023-09-19T00:33:24;97997.22;;;21.79;62.05
19259;BME280;9763;48.780;9.212;2023-09-19T00:36:50;97995.09;;;21.75;62.62
19259;BME280;9763;48.780;9.212;2023-09-19T00:40:17;98006.13;;;21.72;61.99
19259;BME280;9763;48.780;9.212;2023-09-19T00:43:42;98005.72;;;21.75;62.02
19259;BME280;9763;48.780;9.212;2023-09-19T00:47:06;98017.84;;;21.77;61.97
19259;BME280;9763;48.780;9.212;2023-09-19T00:50:32;98010.34;;;21.81;61.97
19259;BME280;9763;48.780;9.212;2023-09-19T00:53:58;98011.63;;;21.85;61.51
19259;BME280;9763;48.780;9.212;2023-09-19T00:57:25;98011.69;;;21.77;61.83
19259;BME280;9763;48.780;9.212;2023-09-19T01:00:50;98023.63;;;21.81;62.02
19259;BME280;9763;48.780;9.212;2023-09-19T01:04:18;98026.09;;;21.82;61.70
19259;BME280;9763;48.780;9.212;2023-09-19T01:07:44;98024.44;;;21.81;61.49
19259;BME280;9763;48.780;9.212;2023-09-19T01:11:16;98027.28;;;21.80;61.58
19259;BME280;9763;48.780;9.212;2023-09-19T01:14:59;98027.28;;;21.80;62.15
19259;BME280;9763;48.780;9.212;2023-09-19T01:18:40;98031.78;;;21.79;61.32
19259;BME280;9763;48.780;9.212;2023-09-19T01:22:16;98032.78;;;21.78;61.36
19259;BME280;9763;48.780;9.212;2023-09-19T01:26:10;98031.13;;;21.77;61.31
19259;BME280;9763;48.780;9.212;2023-09-19T01:29:39;98033.13;;;21.75;61.89
19259;BME280;9763;48.780;9.212;2023-09-19T01:33:08;98040.91;;;21.77;61.33
19259;BME280;9763;48.780;9.212;2023-09-19T01:36:35;98041.09;;;21.75;61.83
19259;BME280;9763;48.780;9.212;2023-09-19T01:40:05;98040.28;;;21.75;61.97
19259;BME280;9763;48.780;9.212;2023-09-19T01:43:42;98039.44;;;21.74;61.11
19259;BME280;9763;48.780;9.212;2023-09-19T01:47:18;98030.38;;;21.69;61.57
19259;BME280;9763;48.780;9.212;2023-09-19T01:50:55;98042.09;;;21.74;61.26
19259;BME280;9763;48.780;9.212;2023-09-19T01:54:30;98042.94;;;21.75;61.06
19259;BME280;9763;48.780;9.212;2023-09-19T01:58:05;98046.59;;;21.74;61.24
19259;BME280;9763;48.780;9.212;2023-09-19T02:01:31;98047.78;;;21.71;61.77
19259;BME280;9763;48.780;9.212;2023-09-19T02:05:06;98059.25;;;21.72;61.06
19259;BME280;9763;48.780;9.212;2023-09-19T02:08:37;98059.44;;;21.70;61.05
19259;BME280;9763;48.780;9.212;2023-09-19T02:12:04;98066.75;;;21.68;61.39
19259;BME280;9763;48.780;9.212;2023-09-19T02:15:28;98069.75;;;21.65;60.82
19259;BME280;9763;48.780;9.212;2023-09-19T02:18:58;98079.91;;;21.62;61.50
19259;BME280;9763;48.780;9.212;2023-09-19T02:22:23;98075.78;;;21.59;61.09
19259;BME280;9763;48.780;9.212;2023-09-19T02:25:53;98071.47;;;21.58;61.53
19259;BME280;9763;48.780;9.212;2023-09-19T02:29:18;98062.91;;;21.48;61.62
19259;BME280;9763;48.780;9.212;2023-09-19T02:32:42;98072.81;;;21.54;60.91
19259;BME280;9763;48.780;9.212;2023-09-19T02:36:07;98084.63;;;21.51;60.90
19259;BME280;9763;48.780;9.212;2023-09-19T02:39:32;98073.53;;;21.48;61.39
19259;BME280;9763;48.780;9.212;2023-09-19T02:42:58;98079.53;;;21.42;60.97
19259;BME280;9763;48.780;9.212;2023-09-19T02:46:23;98075.13;;;21.34;61.77
19259;BME280;9763;48.780;9.212;2023-09-19T02:49:48;98089.75;;;21.30;61.62
19259;BME280;9763;48.780;9.212;2023-09-19T02:53:13;98095.56;;;21.26;61.00
19259;BME280;9763;48.780;9.212;2023-09-19T02:56:38;98096.09;;;21.21;60.90
19259;BME280;9763;48.780;9.212;2023-09-19T03:00:06;98098.09;;;21.19;61.51
19259;BME280;9763;48.780;9.212;2023-09-19T03:03:33;98097.94;;;21.20;61.11
19259;BME280;9763;48.780;9.212;2023-09-19T03:06:57;98099.25;;;21.25;61.55
19259;BME280;9763;48.780;9.212;2023-09-19T03:10:23;98066.28;;;21.11;61.17
19259;BME280;9763;48.780;9.212;2023-09-19T03:13:51;98098.19;;;21.34;61.55
19259;BME280;9763;48.780;9.212;2023-09-19T03:17:18;98096.81;;;21.38;61.09
19259;BME280;9763;48.780;9.212;2023-09-19T03:20:43;98107.94;;;21.41;61.46
19259;BME280;9763;48.780;9.212;2023-09-19T03:24:08;98103.09;;;21.45;61.49
19259;BME280;9763;48.780;9.212;2023-09-19T03:27:33;98096.44;;;21.49;60.74
19259;BME280;9763;48.780;9.212;2023-09-19T03:31:06;98103.69;;;21.55;60.66
19259;BME280;9763;48.780;9.212;2023-09-19T03:34:35;98105.19;;;21.58;60.71
19259;BME280;9763;48.780;9.212;2023-09-19T03:38:06;98096.88;;;21.61;61.07
19259;BME280;9763;48.780;9.212;2023-09-19T03:41:32;98101.97;;;21.62;60.98
19259;BME280;9763;48.780;9.212;2023-09-19T03:45:00;98099.97;;;21.64;60.59
19259;BME280;9763;48.780;9.212;2023-09-19T03:48:27;98094.31;;;21.67;60.92
19259;BME280;9763;48.780;9.212;2023-09-19T03:51:53;98094.13;;;21.69;60.78
19259;BME280;9763;48.780;9.212;2023-09-19T03:55:20;98099.44;;;21.69;60.42
19259;BME280;9763;48.780;9.212;2023-09-19T03:58:44;98092.13;;;21.71;60.61
19259;BME280;9763;48.780;9.212;2023-09-19T04:02:08;98099.94;;;21.72;60.37
19259;BME280;9763;48.780;9.212;2023-09-19T04:05:35;98098.28;;;21.71;60.83
19259;BME280;9763;48.780;9.212;2023-09-19T04:09:01;98105.75;;;21.68;61.04
19259;BME280;9763;48.780;9.212;2023-09-19T04:12:26;98110.16;;;21.61;61.03
19259;BME280;9763;48.780;9.212;2023-09-19T04:15:49;98105.53;;;21.54;60.90
19259;BME280;9763;48.780;9.212;2023-09-19T04:19:14;98115.22;;;21.47;60.74
19259;BME280;9763;48.780;9.212;2023-09-19T04:22:40;98119.69;;;21.47;60.89
19259;BME280;9763;48.780;9.212;2023-09-19T04:26:05;98118.31;;;21.51;60.34
19259;BME280;9763;48.780;9.212;2023-09-19T04:29:29;98123.94;;;21.56;60.97
19259;BME280;9763;48.780;9.212;2023-09-19T04:32:54;98125.06;;;21.62;60.25
19259;BME280;9763;48.780;9.212;2023-09-19T04:36:18;98127.03;;;21.68;59.99
19259;BME280;9763;48.780;9.212;2023-09-19T04:39:57;98123.84;;;21.72;60.50
19259;BME280;9763;48.780;9.212;2023-09-19T04:43:22;98110.59;;;21.64;60.42
19259;BME280;9763;48.780;9.212;2023-09-19T04:46:47;98131.25;;;21.77;59.85
19259;BME280;9763;48.780;9.212;2023-09-19T04:50:11;98130.44;;;21.76;60.17
19259;BME280;9763;48.780;9.212;2023-09-19T04:53:36;98140.22;;;21.76;60.55
19259;BME280;9763;48.780;9.212;2023-09-19T04:57:02;98141.44;;;21.73;60.27
19259;BME280;9763;48.780;9.212;2023-09-19T05:00:30;98149.63;;;21.64;60.13
19259;BME280;9763;48.780;9.212;2023-09-19T05:04:00;98163.03;;;21.39;61.16
19259;BME280;9763;48.780;9.212;2023-09-19T05:07:25;98172.56;;;21.17;63.61
19259;BME280;9763;48.780;9.212;2023-09-19T05:10:49;98172.16;;;20.98;65.20
19259;BME280;9763;48.780;9.212;2023-09-19T05:14:13;98173.69;;;20.84;66.13
19259;BME280;9763;48.780;9.212;2023-09-19T05:17:38;98168.91;;;20.71;67.28
19259;BME280;9763;48.780;9.212;2023-09-19T05:21:05;98160.50;;;20.60;68.45
19259;BME280;9763;48.780;9.212;2023-09-19T05:24:34;98172.91;;;20.59;68.62
19259;BME280;9763;48.780;9.212;2023-09-19T05:27:59;98182.03;;;20.57;69.16
19259;BME280;9763;48.780;9.212;2023-09-19T05:31:27;98184.19;;;20.53;70.04
19259;BME280;9763;48.780;9.212;2023-09-19T05:34:54;98191.84;;;20.48;70.05
19259;BME280;9763;48.780;9.212;2023-09-19T05:38:21;98197.97;;;20.48;70.31
19259;BME280;9763;48.780;9.212;2023-09-19T05:41:45;98204.25;;;20.47;71.49
19259;BME280;9763;48.780;9.212;2023-09-19T05:45:10;98222.00;;;20.47;71.06
19259;BME280;9763;48.780;9.212;2023-09-19T05:48:39;98224.31;;;20.42;71.18
19259;BME280;9763;48.780;9.212;2023-09-19T05:52:07;98229.22;;;20.29;72.03
19259;BME280;9763;48.780;9.212;2023-09-19T05:55:32;98245.16;;;20.21;71.76
19259;BME280;9763;48.780;9.212;2023-09-19T05:58:56;98244.31;;;20.04;71.11
19259;BME280;9763;48.780;9.212;2023-09-19T06:02:20;98257.03;;;19.92;71.83
19259;BME280;9763;48.780;9.212;2023-09-19T06:05:45;98262.16;;;19.86;72.27
19259;BME280;9763;48.780;9.212;2023-09-19T06:09:15;98261.00;;;19.80;72.52
19259;BME280;9763;48.780;9.212;2023-09-19T06:12:39;98256.47;;;19.72;72.84
19259;BME280;9763;48.780;9.212;2023-09-19T06:16:04;98277.81;;;19.71;72.92
19259;BME280;9763;48.780;9.212;2023-09-19T06:19:32;98282.28;;;19.70;73.13
19259;BME280;9763;48.780;9.212;2023-09-19T06:23:03;98270.03;;;19.69;73.62
19259;BME280;9763;48.780;9.212;2023-09-19T06:26:28;98271.22;;;19.67;74.19
19259;BME280;9763;48.780;9.212;2023-09-19T06:29:53;98267.38;;;19.61;74.08
19259;BME280;9763;48.780;9.212;2023-09-19T06:33:17;98268.34;;;19.60;74.30
19259;BME280;9763;48.780;9.212;2023-09-19T06:36:52;98272.00;;;19.59;75.00
19259;BME280;9763;48.780;9.212;2023-09-19T06:40:18;98265.03;;;19.58;75.00
19259;BME280;9763;48.780;9.212;2023-09-19T06:43:44;98272.88;;;19.68;75.74
19259;BME280;9763;48.780;9.212;2023-09-19T06:47:08;98280.69;;;19.77;75.56
19259;BME280;9763;48.780;9.212;2023-09-19T06:50:33;98292.28;;;19.93;76.23
19259;BME280;9763;48.780;9.212;2023-09-19T06:53:57;98287.53;;;20.04;76.32
19259;BME280;9763;48.780;9.212;2023-09-19T06:57:30;98287.06;;;20.25;76.60
19259;BME280;9763;48.780;9.212;2023-09-19T07:01:02;98290.78;;;20.48;77.03
19259;BME280;9763;48.780;9.212;2023-09-19T07:04:27;98286.59;;;20.78;77.38
19259;BME280;9763;48.780;9.212;2023-09-19T07:07:51;98298.66;;;21.13;77.76
19259;BME280;9763;48.780;9.212;2023-09-19T07:11:27;98312.03;;;21.61;78.68
19259;BME280;9763;48.780;9.212;2023-09-19T07:14:54;98311.19;;;22.07;79.65
19259;BME280;9763;48.780;9.212;2023-09-19T07:18:19;98299.38;;;22.33;78.97
19259;BME280;9763;48.780;9.212;2023-09-19T07:21:46;98318.13;;;22.62;79.13
19259;BME280;9763;48.780;9.212;2023-09-19T07:25:14;98313.38;;;22.72;78.00
19259;BME280;9763;48.780;9.212;2023-09-19T07:28:38;98314.19;;;22.73;77.08
19259;BME280;9763;48.780;9.212;2023-09-19T07:32:03;98315.03;;;22.73;77.30
19259;BME280;9763;48.780;9.212;2023-09-19T07:35:31;98320.03;;;22.76;77.29
19259;BME280;9763;48.780;9.212;2023-09-19T07:38:58;98318.59;;;22.88;77.53
19259;BME280;9763;48.780;9.212;2023-09-19T07:42:44;98324.63;;;23.20;77.49
19259;BME280;9763;48.780;9.212;2023-09-19T07:46:09;98330.16;;;23.48;77.23
19259;BME280;9763;48.780;9.212;2023-09-19T07:49:34;98330.03;;;23.79;77.83
19259;BME280;9763;48.780;9.212;2023-09-19T07:52:59;98341.09;;;24.26;78.51
19259;BME280;9763;48.780;9.212;2023-09-19T07:56:24;98328.69;;;24.83;78.31
19259;BME280;9763;48.780;9.212;2023-09-19T07:59:50;98331.72;;;25.22;78.23
19259;BME280;9763;48.780;9.212;2023-09-19T08:03:14;98343.22;;;25.51;77.22
19259;BME280;9763;48.780;9.212;2023-09-19T08:06:40;98339.69;;;25.78;76.44
19259;BME280;9763;48.780;9.212;2023-09-19T08:10:08;98348.09;;;26.16;75.79
19259;BME280;9763;48.780;9.212;2023-09-19T08:13:35;98342.50;;;26.65;74.42
19259;BME280;9763;48.780;9.212;2023-09-19T08:17:00;98336.34;;;27.31;72.37
19259;BME280;9763;48.780;9.212;2023-09-19T08:20:25;98340.28;;;28.19;69.42
19259;BME280;9763;48.780;9.212;2023-09-19T08:23:49;98340.81;;;29.03;66.62
19259;BME280;9763;48.780;9.212;2023-09-19T08:27:15;98341.56;;;29.79;65.01
19259;BME280;9763;48.780;9.212;2023-09-19T08:30:41;98339.91;;;30.14;63.51
19259;BME280;9763;48.780;9.212;2023-09-19T08:34:06;98336.28;;;30.38;61.91
19259;BME280;9763;48.780;9.212;2023-09-19T08:37:30;98337.59;;;30.66;60.60
19259;BME280;9763;48.780;9.212;2023-09-19T08:40:57;98336.13;;;31.05;59.91
19259;BME280;9763;48.780;9.212;2023-09-19T08:44:25;98341.00;;;31.26;58.03
19259;BME280;9763;48.780;9.212;2023-09-19T08:48:02;98344.63;;;31.43;58.58
19259;BME280;9763;48.780;9.212;2023-09-19T08:51:41;98353.44;;;31.39;57.99
19259;BME280;9763;48.780;9.212;2023-09-19T08:55:11;98346.84;;;31.35;57.41
19259;BME280;9763;48.780;9.212;2023-09-19T08:58:46;98352.63;;;31.38;57.22
19259;BME280;9763;48.780;9.212;2023-09-19T09:02:15;98357.69;;;31.05;57.11
19259;BME280;9763;48.780;9.212;2023-09-19T09:05:42;98357.59;;;31.00;57.43
19259;BME280;9763;48.780;9.212;2023-09-19T09:09:09;98350.84;;;31.32;57.01
19259;BME280;9763;48.780;9.212;2023-09-19T09:12:35;98357.19;;;32.25;56.03
19259;BME280;9763;48.780;9.212;2023-09-19T09:16:02;98356.50;;;33.03;54.78
19259;BME280;9763;48.780;9.212;2023-09-19T09:19:27;98356.28;;;33.38;52.72
19259;BME280;9763;48.780;9.212;2023-09-19T09:22:52;98349.25;;;33.58;51.23
19259;BME280;9763;48.780;9.212;2023-09-19T09:26:17;98356.31;;;33.59;50.58
19259;BME280;9763;48.780;9.212;2023-09-19T09:29:43;98360.91;;;33.59;49.28
19259;BME280;9763;48.780;9.212;2023-09-19T09:33:10;98361.97;;;33.58;48.42
19259;BME280;9763;48.780;9.212;2023-09-19T09:36:38;98357.72;;;33.45;47.50
19259;BME280;9763;48.780;9.212;2023-09-19T09:40:05;98346.03;;;33.40;46.83
19259;BME280;9763;48.780;9.212;2023-09-19T09:43:42;98346.56;;;33.58;46.85
19259;BME280;9763;48.780;9.212;2023-09-19T09:47:09;98351.88;;;33.70;45.47
19259;BME280;9763;48.780;9.212;2023-09-19T09:50:51;98352.34;;;34.06;45.29
19259;BME280;9763;48.780;9.212;2023-09-19T09:54:20;98352.53;;;34.43;44.30
19259;BME280;9763;48.780;9.212;2023-09-19T09:57:45;98353.97;;;34.99;44.37
19259;BME280;9763;48.780;9.212;2023-09-19T10:01:09;98352.69;;;35.44;43.48
19259;BME280;9763;48.780;9.212;2023-09-19T10:04:37;98344.03;;;35.94;42.31
19259;BME280;9763;48.780;9.212;2023-09-19T10:08:14;98351.06;;;36.57;41.66
19259;BME280;9763;48.780;9.212;2023-09-19T10:11:44;98335.91;;;36.82;40.87
19259;BME280;9763;48.780;9.212;2023-09-19T10:15:11;98345.88;;;36.61;39.78
19259;BME280;9763;48.780;9.212;2023-09-19T10:18:40;98334.31;;;36.13;38.67
19259;BME280;9763;48.780;9.212;2023-09-19T10:22:07;98339.00;;;35.70;38.04
19259;BME280;9763;48.780;9.212;2023-09-19T10:25:32;98346.47;;;34.57;39.21
19259;BME280;9763;48.780;9.212;2023-09-19T10:29:01;98338.25;;;33.43;39.52
19259;BME280;9763;48.780;9.212;2023-09-19T10:32:29;98341.03;;;32.70;40.46
19259;BME280;9763;48.780;9.212;2023-09-19T10:35:59;98332.91;;;32.13;40.48
19259;BME280;9763;48.780;9.212;2023-09-19T10:39:24;98336.69;;;32.69;39.74
19259;BME280;9763;48.780;9.212;2023-09-19T10:42:49;98334.94;;;32.46;39.39
19259;BME280;9763;48.780;9.212;2023-09-19T10:46:15;98350.47;;;31.99;39.32
19259;BME280;9763;48.780;9.212;2023-09-19T10:49:44;98341.31;;;31.88;38.66
19259;BME280;9763;48.780;9.212;2023-09-19T10:53:11;98341.19;;;31.95;38.41
19259;BME280;9763;48.780;9.212;2023-09-19T10:56:37;98335.94;;;32.16;37.73
19259;BME280;9763;48.780;9.212;2023-09-19T11:00:06;98333.88;;;32.07;37.44
19259;BME280;9763;48.780;9.212;2023-09-19T11:03:47;98341.03;;;32.70;36.87
19259;BME280;9763;48.780;9.212;2023-09-19T11:07:16;98337.50;;;33.14;36.68
19259;BME280;9763;48.780;9.212;2023-09-19T11:10:46;98335.19;;;33.06;36.82
19259;BME280;9763;48.780;9.212;2023-09-19T11:17:54;98340.16;;;31.49;37.75
19259;BME280;9763;48.780;9.212;2023-09-19T11:25:42;98332.94;;;32.41;37.30
19259;BME280;9763;48.780;9.212;2023-09-19T11:29:31;98323.06;;;32.64;36.34
19259;BME280;9763;48.780;9.212;2023-09-19T11:33:17;98317.34;;;32.60;36.10
19259;BME280;9763;48.780;9.212;2023-09-19T11:36:43;98316.44;;;31.86;36.34
19259;BME280;9763;48.780;9.212;2023-09-19T11:40:09;98323.94;;;30.91;36.97
19259;BME280;9763;48.780;9.212;2023-09-19T11:43:40;98325.84;;;30.30;37.90
19259;BME280;9763;48.780;9.212;2023-09-19T11:47:05;98324.91;;;30.06;37.93
19259;BME280;9763;48.780;9.212;2023-09-19T11:50:31;98321.59;;;29.86;38.13
19259;BME280;9763;48.780;9.212;2023-09-19T11:53:56;98318.09;;;30.34;37.85
19259;BME280;9763;48.780;9.212;2023-09-19T11:57:22;98308.91;;;30.95;36.79
19259;BME280;9763;48.780;9.212;2023-09-19T12:00:54;98301.00;;;31.23;36.96
19259;BME280;9763;48.780;9.212;2023-09-19T12:04:33;98305.19;;;31.31;36.60
19259;BME280;9763;48.780;9.212;2023-09-19T12:07:58;98309.13;;;30.93;36.81
19259;BME280;9763;48.780;9.212;2023-09-19T12:11:29;98304.19;;;30.67;37.51
19259;BME280;9763;48.780;9.212;2023-09-19T12:14:57;98304.22;;;30.90;37.66
19259;BME280;9763;48.780;9.212;2023-09-19T12:18:30;98289.47;;;31.16;37.54
19259;BME280;9763;48.780;9.212;2023-09-19T12:21:58;98293.56;;;31.54;37.11
19259;BME280;9763;48.780;9.212;2023-09-19T12:25:22;98278.41;;;31.88;36.06
19259;BME280;9763;48.780;9.212;2023-09-19T12:28:47;98280.13;;;32.34;35.37
19259;BME280;9763;48.780;9.212;2023-09-19T12:32:12;98276.25;;;32.91;34.42
19259;BME280;9763;48.780;9.212;2023-09-19T12:35:40;98272.63;;;33.36;33.43
19259;BME280;9763;48.780;9.212;2023-09-19T12:39:06;98265.75;;;33.12;33.40
19259;BME280;9763;48.780;9.212;2023-09-19T12:42:32;98266.91;;;32.99;33.35
19259;BME280;9763;48.780;9.212;2023-09-19T12:45:58;98264.63;;;33.46;32.60
19259;BME280;9763;48.780;9.212;2023-09-19T12:49:22;98261.66;;;33.86;32.00
19259;BME280;9763;48.780;9.212;2023-09-19T12:52:49;98257.16;;;33.53;31.59
19259;BME280;9763;48.780;9.212;2023-09-19T12:56:15;98257.31;;;32.58;32.58
19259;BME280;9763;48.780;9.212;2023-09-19T12:59:39;98259.56;;;32.33;33.05
19259;BME280;9763;48.780;9.212;2023-09-19T13:03:24;98242.75;;;31.74;33.63
19259;BME280;9763;48.780;9.212;2023-09-19T13:06:50;98242.69;;;31.34;33.73
19259;BME280;9763;48.780;9.212;2023-09-19T13:10:15;98245.63;;;31.32;33.96
19259;BME280;9763;48.780;9.212;2023-09-19T13:13:41;98252.22;;;31.13;34.04
19259;BME280;9763;48.780;9.212;2023-09-19T13:17:10;98248.22;;;30.51;34.80
19259;BME280;9763;48.780;9.212;2023-09-19T13:20:39;98254.34;;;30.16;35.32
19259;BME280;9763;48.780;9.212;2023-09-19T13:24:20;98249.22;;;29.78;35.66
19259;BME280;9763;48.780;9.212;2023-09-19T13:27:49;98251.72;;;29.43;36.58
19259;BME280;9763;48.780;9.212;2023-09-19T13:31:15;98246.41;;;29.12;37.29
19259;BME280;9763;48.780;9.212;2023-09-19T13:34:39;98237.81;;;28.85;37.05
19259;BME280;9763;48.780;9.212;2023-09-19T13:38:03;98238.13;;;28.63;37.04
19259;BME280;9763;48.780;9.212;2023-09-19T13:41:29;98240.81;;;28.39;37.28
19259;BME280;9763;48.780;9.212;2023-09-19T13:44:55;98240.56;;;28.09;37.22
19259;BME280;9763;48.780;9.212;2023-09-19T13:48:19;98232.59;;;27.95;37.68
19259;BME280;9763;48.780;9.212;2023-09-19T13:51:45;98228.53;;;27.80;38.02
19259;BME280;9763;48.780;9.212;2023-09-19T13:55:09;98224.28;;;27.66;38.28
19259;BME280;9763;48.780;9.212;2023-09-19T13:58:32;98217.09;;;27.59;38.38
19259;BME280;9763;48.780;9.212;2023-09-19T14:01:59;98226.59;;;27.55;37.80
19259;BME280;9763;48.780;9.212;2023-09-19T14:05:23;98222.06;;;27.49;37.99
19259;BME280;9763;48.780;9.212;2023-09-19T14:08:50;98219.78;;;27.46;38.15
19259;BME280;9763;48.780;9.212;2023-09-19T14:12:15;98220.63;;;27.47;38.01
19259;BME280;9763;48.780;9.212;2023-09-19T14:15:39;98216.69;;;27.43;38.09
19259;BME280;9763;48.780;9.212;2023-09-19T14:19:04;98218.34;;;27.44;38.58
19259;BME280;9763;48.780;9.212;2023-09-19T14:22:28;98217.72;;;27.42;38.11
19259;BME280;9763;48.780;9.212;2023-09-19T14:25:52;98215.91;;;27.36;37.70
19259;BME280;9763;48.780;9.212;2023-09-19T14:29:16;98205.19;;;27.29;37.99
19259;BME280;9763;48.780;9.212;2023-09-19T14:32:42;98200.06;;;27.28;38.10
19259;BME280;9763;48.780;9.212;2023-09-19T14:36:09;98196.56;;;27.20;37.53
19259;BME280;9763;48.780;9.212;2023-09-19T14:39:33;98200.28;;;27.19;37.96
19259;BME280;9763;48.780;9.212;2023-09-19T14:42:57;98201.97;;;27.14;37.84
19259;BME280;9763;48.780;9.212;2023-09-19T14:46:21;98195.16;;;27.11;37.62
19259;BME280;9763;48.780;9.212;2023-09-19T14:49:47;98199.91;;;27.09;37.72
19259;BME280;9763;48.780;9.212;2023-09-19T14:53:12;98195.56;;;27.08;37.39
19259;BME280;9763;48.780;9.212;2023-09-19T14:56:37;98195.78;;;27.07;37.67
19259;BME280;9763;48.780;9.212;2023-09-19T15:00:01;98190.63;;;27.05;37.83
19259;BME280;9763;48.780;9.212;2023-09-19T15:03:28;98193.31;;;27.05;37.44
19259;BME280;9763;48.780;9.212;2023-09-19T15:06:52;98193.53;;;27.04;37.95
19259;BME280;9763;48.780;9.212;2023-09-19T15:10:19;98193.94;;;27.01;37.92
19259;BME280;9763;48.780;9.212;2023-09-19T15:13:45;98192.31;;;26.93;37.92
19259;BME280;9763;48.780;9.212;2023-09-19T15:17:09;98193.13;;;26.87;38.27
19259;BME280;9763;48.780;9.212;2023-09-19T15:20:34;98188.81;;;26.79;37.77
19259;BME280;9763;48.780;9.212;2023-09-19T15:23:58;98195.63;;;26.75;37.64
19259;BME280;9763;48.780;9.212;2023-09-19T15:27:24;98195.59;;;26.69;37.66
19259;BME280;9763;48.780;9.212;2023-09-19T15:30:47;98194.16;;;26.60;38.03
19259;BME280;9763;48.780;9.212;2023-09-19T15:34:11;98187.81;;;26.54;37.51
19259;BME280;9763;48.780;9.212;2023-09-19T15:37:38;98179.75;;;26.47;38.08
19259;BME280;9763;48.780;9.212;2023-09-19T15:41:04;98178.53;;;26.43;38.05
19259;BME280;9763;48.780;9.212;2023-09-19T15:44:30;98162.47;;;26.37;37.59
19259;BME280;9763;48.780;9.212;2023-09-19T15:47:55;98166.16;;;26.36;37.94
19259;BME280;9763;48.780;9.212;2023-09-19T15:51:20;98174.59;;;26.33;38.29
19259;BME280;9763;48.780;9.212;2023-09-19T15:54:44;98174.41;;;26.34;38.42
19259;BME280;9763;48.780;9.212;2023-09-19T15:58:08;98169.25;;;26.33;38.35
19259;BME280;9763;48.780;9.212;2023-09-19T16:01:34;98170.69;;;26.35;38.24
19259;BME280;9763;48.780;9.212;2023-09-19T16:04:57;98159.38;;;26.33;38.71
19259;BME280;9763;48.780;9.212;2023-09-19T16:08:22;98166.38;;;26.28;38.60
19259;BME280;9763;48.780;9.212;2023-09-19T16:11:45;98171.91;;;26.19;38.20
19259;BME280;9763;48.780;9.212;2023-09-19T16:15:11;98170.66;;;26.15;38.27
19259;BME280;9763;48.780;9.212;2023-09-19T16:18:38;98170.66;;;26.09;38.44
19259;BME280;9763;48.780;9.212;2023-09-19T16:22:03;98165.94;;;26.04;38.96
19259;BME280;9763;48.780;9.212;2023-09-19T16:25:26;98163.66;;;26.01;38.95
19259;BME280;9763;48.780;9.212;2023-09-19T16:28:52;98168.56;;;25.98;38.93
19259;BME280;9763;48.780;9.212;2023-09-19T16:32:16;98167.75;;;25.97;38.52
19259;BME280;9763;48.780;9.212;2023-09-19T16:35:41;98164.25;;;25.97;38.50
19259;BME280;9763;48.780;9.212;2023-09-19T16:39:05;98160.34;;;25.93;38.73
19259;BME280;9763;48.780;9.212;2023-09-19T16:42:30;98162.63;;;25.96;39.08
19259;BME280;9763;48.780;9.212;2023-09-19T16:46:02;98161.19;;;25.93;38.89
19259;BME280;9763;48.780;9.212;2023-09-19T16:49:30;98158.09;;;25.90;39.22
19259;BME280;9763;48.780;9.212;2023-09-19T16:52:55;98157.84;;;25.84;39.46
19259;BME280;9763;48.780;9.212;2023-09-19T16:56:19;98160.72;;;25.76;38.88
19259;BME280;9763;48.780;9.212;2023-09-19T16:59:44;98167.09;;;25.69;39.60
19259;BME280;9763;48.780;9.212;2023-09-19T17:03:08;98168.72;;;25.63;39.51
19259;BME280;9763;48.780;9.212;2023-09-19T17:06:33;98168.47;;;25.58;39.75
19259;BME280;9763;48.780;9.212;2023-09-19T17:10:05;98170.72;;;25.55;39.14
19259;BME280;9763;48.780;9.212;2023-09-19T17:13:30;98168.63;;;25.50;39.78
19259;BME280;9763;48.780;9.212;2023-09-19T17:16:55;98166.16;;;25.42;40.02
19259;BME280;9763;48.780;9.212;2023-09-19T17:20:18;98180.53;;;25.41;39.63
19259;BME280;9763;48.780;9.212;2023-09-19T17:23:42;98146.50;;;25.15;40.23
19259;BME280;9763;48.780;9.212;2023-09-19T17:27:08;98175.75;;;25.23;40.34
19259;BME280;9763;48.780;9.212;2023-09-19T17:30:36;98177.94;;;25.13;39.83
19259;BME280;9763;48.780;9.212;2023-09-19T17:34:01;98182.81;;;25.03;39.78
19259;BME280;9763;48.780;9.212;2023-09-19T17:37:25;98179.19;;;24.89;40.45
19259;BME280;9763;48.780;9.212;2023-09-19T17:40:50;98187.56;;;24.80;40.63
19259;BME280;9763;48.780;9.212;2023-09-19T17:44:15;98180.28;;;24.67;40.12
19259;BME280;9763;48.780;9.212;2023-09-19T17:47:43;98185.97;;;24.57;40.38
19259;BME280;9763;48.780;9.212;2023-09-19T17:51:07;98187.53;;;24.45;40.85
19259;BME280;9763;48.780;9.212;2023-09-19T17:54:32;98183.72;;;24.33;41.21
19259;BME280;9763;48.780;9.212;2023-09-19T17:57:56;98192.88;;;24.24;41.56
19259;BME280;9763;48.780;9.212;2023-09-19T18:01:24;98196.69;;;24.15;41.61
19259;BME280;9763;48.780;9.212;2023-09-19T18:04:50;98191.63;;;24.05;41.60
19259;BME280;9763;48.780;9.212;2023-09-19T18:08:14;98206.56;;;23.99;41.27
19259;BME280;9763;48.780;9.212;2023-09-19T18:11:40;98206.91;;;23.90;41.85
19259;BME280;9763;48.780;9.212;2023-09-19T18:15:08;98203.91;;;23.78;41.38
19259;BME280;9763;48.780;9.212;2023-09-19T18:18:33;98210.50;;;23.67;41.57
19259;BME280;9763;48.780;9.212;2023-09-19T18:21:57;98212.47;;;23.59;41.75
19259;BME280;9763;48.780;9.212;2023-09-19T18:25:22;98221.84;;;23.55;42.13
19259;BME280;9763;48.780;9.212;2023-09-19T18:28:46;98218.91;;;23.50;42.40
19259;BME280;9763;48.780;9.212;2023-09-19T18:32:10;98215.94;;;23.45;42.01
19259;BME280;9763;48.780;9.212;2023-09-19T18:35:35;98220.03;;;23.41;42.80
19259;BME280;9763;48.780;9.212;2023-09-19T18:39:00;98222.22;;;23.37;42.49